sensor_id;sensor_type;location;lat;lon;timestamp;P1;durP1;ratioP1;P2;durP2;ratioP2
13443;SDS011;6794;59.218;18.218;2022-08-19T00:02:23;21.67;;;16.63;;
13443;SDS011;6794;59.218;18.218;2022-08-19T00:04:49;21.83;;;18.20;;
13443;SDS011;6794;59.218;18.218;2022-08-19T00:07:17;21.43;;;17.77;;
13443;SDS011;6794;59.218;18.218;2022-08-19T00:09:44;24.73;;;18.20;;
13443;SDS011;6794;59.218;18.218;2022-08-19T00:12:10;22.37;;;17.73;;
13443;SDS011;6794;59.218;18.218;2022-08-19T00:14:37;21.87;;;17.47;;
13443;SDS011;6794;59.218;18.218;2022-08-19T00:17:03;24.43;;;19.30;;
13443;SDS011;6794;59.218;18.218;2022-08-19T00:19:30;22.57;;;17.90;;
13443;SDS011;6794;59.218;18.218;2022-08-19T00:21:56;23.77;;;17.87;;
13443;SDS011;6794;59.218;18.218;2022-08-19T00:24:22;21.63;;;18.63;;
13443;SDS011;6794;59.218;18.218;2022-08-19T00:26:49;19.20;;;16.93;;
13443;SDS011;6794;59.218;18.218;2022-08-19T00:29:16;19.63;;;16.50;;
13443;SDS011;6794;59.218;18.218;2022-08-19T00:31:42;20.97;;;17.17;;
13443;SDS011;6794;59.218;18.218;2022-08-19T00:34:09;22.07;;;17.97;;
13443;SDS011;6794;59.218;18.218;2022-08-19T00:36:36;23.20;;;17.67;;
13443;SDS011;6794;59.218;18.218;2022-08-19T00:39:02;21.83;;;16.37;;
13443;SDS011;6794;59.218;18.218;2022-08-19T00:41:29;21.13;;;16.63;;
13443;SDS011;6794;59.218;18.218;2022-08-19T00:43:59;20.67;;;15.93;;
13443;SDS011;6794;59.218;18.218;2022-08-19T00:46:26;17.10;;;15.20;;
13443;SDS011;6794;59.218;18.218;2022-08-19T00:48:52;19.13;;;15.87;;
13443;SDS011;6794;59.218;18.218;2022-08-19T00:51:19;19.07;;;16.07;;
13443;SDS011;6794;59.218;18.218;2022-08-19T00:53:47;20.40;;;16.20;;
13443;SDS011;6794;59.218;18.218;2022-08-19T00:56:13;21.03;;;15.67;;
13443;SDS011;6794;59.218;18.218;2022-08-19T00:58:40;17.87;;;15.97;;
13443;SDS011;6794;59.218;18.218;2022-08-19T01:01:06;18.03;;;15.67;;
13443;SDS011;6794;59.218;18.218;2022-08-19T01:03:32;20.30;;;16.00;;
13443;SDS011;6794;59.218;18.218;2022-08-19T01:05:59;22.83;;;17.03;;
13443;SDS011;6794;59.218;18.218;2022-08-19T01:08:25;18.97;;;15.93;;
13443;SDS011;6794;59.218;18.218;2022-08-19T01:10:52;20.63;;;16.67;;
13443;SDS011;6794;59.218;18.218;2022-08-19T01:13:20;18.13;;;15.50;;
13443;SDS011;6794;59.218;18.218;2022-08-19T01:15:49;18.47;;;16.53;;
13443;SDS011;6794;59.218;18.218;2022-08-19T01:18:16;20.83;;;17.60;;
13443;SDS011;6794;59.218;18.218;2022-08-19T01:20:43;19.27;;;16.97;;
13443;SDS011;6794;59.218;18.218;2022-08-19T01:23:09;21.33;;;16.40;;
13443;SDS011;6794;59.218;18.218;2022-08-19T01:25:39;19.43;;;16.87;;
13443;SDS011;6794;59.218;18.218;2022-08-19T01:28:06;20.63;;;18.13;;
13443;SDS011;6794;59.218;18.218;2022-08-19T01:30:33;21.60;;;18.63;;
13443;SDS011;6794;59.218;18.218;2022-08-19T01:33:00;24.80;;;18.73;;
13443;SDS011;6794;59.218;18.218;2022-08-19T01:35:27;21.10;;;18.80;;
13443;SDS011;6794;59.218;18.218;2022-08-19T01:37:55;23.47;;;18.87;;
13443;SDS011;6794;59.218;18.218;2022-08-19T01:40:22;24.10;;;19.53;;
13443;SDS011;6794;59.218;18.218;2022-08-19T01:42:49;23.17;;;20.30;;
13443;SDS011;6794;59.218;18.218;2022-08-19T01:45:15;22.33;;;19.53;;
13443;SDS011;6794;59.218;18.218;2022-08-19T01:47:42;22.90;;;20.37;;
13443;SDS011;6794;59.218;18.218;2022-08-19T01:50:09;22.33;;;19.80;;
13443;SDS011;6794;59.218;18.218;2022-08-19T01:52:36;23.13;;;18.83;;
13443;SDS011;6794;59.218;18.218;2022-08-19T01:55:03;21.07;;;18.80;;
13443;SDS011;6794;59.218;18.218;2022-08-19T01:57:29;23.10;;;19.73;;
13443;SDS011;6794;59.218;18.218;2022-08-19T01:59:55;25.60;;;19.47;;
13443;SDS011;6794;59.218;18.218;2022-08-19T02:02:21;23.87;;;19.53;;
13443;SDS011;6794;59.218;18.218;2022-08-19T02:04:48;24.53;;;19.00;;
13443;SDS011;6794;59.218;18.218;2022-08-19T02:07:14;24.87;;;19.27;;
13443;SDS011;6794;59.218;18.218;2022-08-19T02:09:40;23.10;;;19.63;;
13443;SDS011;6794;59.218;18.218;2022-08-19T02:12:06;21.53;;;19.23;;
13443;SDS011;6794;59.218;18.218;2022-08-19T02:14:34;21.73;;;19.50;;
13443;SDS011;6794;59.218;18.218;2022-08-19T02:17:00;21.53;;;19.33;;
13443;SDS011;6794;59.218;18.218;2022-08-19T02:19:26;21.77;;;18.50;;
13443;SDS011;6794;59.218;18.218;2022-08-19T02:21:52;22.27;;;18.63;;
13443;SDS011;6794;59.218;18.218;2022-08-19T02:24:18;23.80;;;19.33;;
13443;SDS011;6794;59.218;18.218;2022-08-19T02:26:44;27.47;;;21.80;;
13443;SDS011;6794;59.218;18.218;2022-08-19T02:29:10;24.73;;;21.47;;
13443;SDS011;6794;59.218;18.218;2022-08-19T02:31:36;30.23;;;19.93;;
13443;SDS011;6794;59.218;18.218;2022-08-19T02:34:02;26.07;;;19.43;;
13443;SDS011;6794;59.218;18.218;2022-08-19T02:36:28;22.53;;;20.10;;
13443;SDS011;6794;59.218;18.218;2022-08-19T02:38:55;22.50;;;19.17;;
13443;SDS011;6794;59.218;18.218;2022-08-19T02:41:24;22.07;;;18.80;;
13443;SDS011;6794;59.218;18.218;2022-08-19T02:43:50;23.03;;;19.13;;
13443;SDS011;6794;59.218;18.218;2022-08-19T02:46:18;20.67;;;18.37;;
13443;SDS011;6794;59.218;18.218;2022-08-19T02:48:49;23.37;;;20.20;;
13443;SDS011;6794;59.218;18.218;2022-08-19T02:51:19;21.70;;;19.27;;
13443;SDS011;6794;59.218;18.218;2022-08-19T02:53:46;21.83;;;18.97;;
13443;SDS011;6794;59.218;18.218;2022-08-19T02:56:12;24.27;;;20.80;;
13443;SDS011;6794;59.218;18.218;2022-08-19T02:58:39;22.93;;;19.70;;
13443;SDS011;6794;59.218;18.218;2022-08-19T03:01:05;22.73;;;20.30;;
13443;SDS011;6794;59.218;18.218;2022-08-19T03:03:31;22.37;;;19.97;;
13443;SDS011;6794;59.218;18.218;2022-08-19T03:06:13;23.20;;;19.53;;
13443;SDS011;6794;59.218;18.218;2022-08-19T03:08:40;25.03;;;20.37;;
13443;SDS011;6794;59.218;18.218;2022-08-19T03:11:12;27.97;;;20.23;;
13443;SDS011;6794;59.218;18.218;2022-08-19T03:13:38;24.07;;;18.33;;
13443;SDS011;6794;59.218;18.218;2022-08-19T03:16:04;26.97;;;21.40;;
13443;SDS011;6794;59.218;18.218;2022-08-19T03:18:30;23.80;;;20.13;;
13443;SDS011;6794;59.218;18.218;2022-08-19T03:20:56;24.83;;;20.00;;
13443;SDS011;6794;59.218;18.218;2022-08-19T03:23:23;26.90;;;20.27;;
13443;SDS011;6794;59.218;18.218;2022-08-19T03:25:51;21.37;;;19.07;;
13443;SDS011;6794;59.218;18.218;2022-08-19T03:28:18;26.43;;;20.57;;
13443;SDS011;6794;59.218;18.218;2022-08-19T03:30:54;31.07;;;20.60;;
13443;SDS011;6794;59.218;18.218;2022-08-19T03:33:23;26.27;;;19.80;;
13443;SDS011;6794;59.218;18.218;2022-08-19T03:36:07;27.83;;;20.80;;
13443;SDS011;6794;59.218;18.218;2022-08-19T03:38:35;27.10;;;19.97;;
13443;SDS011;6794;59.218;18.218;2022-08-19T03:41:02;29.37;;;21.57;;
13443;SDS011;6794;59.218;18.218;2022-08-19T03:43:28;26.87;;;20.50;;
13443;SDS011;6794;59.218;18.218;2022-08-19T03:46:04;30.13;;;20.23;;
13443;SDS011;6794;59.218;18.218;2022-08-19T03:48:31;27.70;;;20.13;;
13443;SDS011;6794;59.218;18.218;2022-08-19T03:50:57;28.00;;;19.70;;
13443;SDS011;6794;59.218;18.218;2022-08-19T03:53:24;30.30;;;21.00;;
13443;SDS011;6794;59.218;18.218;2022-08-19T03:55:51;30.80;;;20.33;;
13443;SDS011;6794;59.218;18.218;2022-08-19T03:58:18;28.30;;;20.43;;
13443;SDS011;6794;59.218;18.218;2022-08-19T04:00:44;28.50;;;20.67;;
13443;SDS011;6794;59.218;18.218;2022-08-19T04:03:10;25.77;;;19.90;;
13443;SDS011;6794;59.218;18.218;2022-08-19T04:05:36;31.77;;;20.67;;
13443;SDS011;6794;59.218;18.218;2022-08-19T04:08:03;32.90;;;20.73;;
13443;SDS011;6794;59.218;18.218;2022-08-19T04:10:31;30.27;;;20.57;;
13443;SDS011;6794;59.218;18.218;2022-08-19T04:13:00;35.10;;;20.27;;
13443;SDS011;6794;59.218;18.218;2022-08-19T04:15:26;37.27;;;20.57;;
13443;SDS011;6794;59.218;18.218;2022-08-19T04:17:55;44.83;;;21.20;;
13443;SDS011;6794;59.218;18.218;2022-08-19T04:20:21;33.37;;;20.77;;
13443;SDS011;6794;59.218;18.218;2022-08-19T04:22:47;37.27;;;20.87;;
13443;SDS011;6794;59.218;18.218;2022-08-19T04:25:13;39.97;;;21.00;;
13443;SDS011;6794;59.218;18.218;2022-08-19T04:27:39;31.43;;;20.43;;
13443;SDS011;6794;59.218;18.218;2022-08-19T04:30:12;29.83;;;21.10;;
13443;SDS011;6794;59.218;18.218;2022-08-19T04:32:38;29.63;;;20.37;;
13443;SDS011;6794;59.218;18.218;2022-08-19T04:35:04;25.57;;;19.63;;
13443;SDS011;6794;59.218;18.218;2022-08-19T04:37:30;30.97;;;20.10;;
13443;SDS011;6794;59.218;18.218;2022-08-19T04:39:58;29.87;;;21.10;;
13443;SDS011;6794;59.218;18.218;2022-08-19T04:42:43;26.37;;;20.10;;
13443;SDS011;6794;59.218;18.218;2022-08-19T04:45:11;27.70;;;18.00;;
13443;SDS011;6794;59.218;18.218;2022-08-19T04:47:38;25.93;;;18.90;;
13443;SDS011;6794;59.218;18.218;2022-08-19T04:50:05;27.10;;;19.63;;
13443;SDS011;6794;59.218;18.218;2022-08-19T04:52:31;22.30;;;18.17;;
13443;SDS011;6794;59.218;18.218;2022-08-19T04:54:57;19.67;;;15.30;;
13443;SDS011;6794;59.218;18.218;2022-08-19T04:57:23;16.73;;;14.47;;
13443;SDS011;6794;59.218;18.218;2022-08-19T04:59:53;17.47;;;15.30;;
13443;SDS011;6794;59.218;18.218;2022-08-19T05:02:20;15.73;;;14.03;;
13443;SDS011;6794;59.218;18.218;2022-08-19T05:04:48;18.47;;;15.53;;
13443;SDS011;6794;59.218;18.218;2022-08-19T05:07:14;18.00;;;15.10;;
13443;SDS011;6794;59.218;18.218;2022-08-19T05:09:40;18.07;;;14.60;;
13443;SDS011;6794;59.218;18.218;2022-08-19T05:12:06;15.50;;;13.10;;
13443;SDS011;6794;59.218;18.218;2022-08-19T05:14:32;15.13;;;13.53;;
13443;SDS011;6794;59.218;18.218;2022-08-19T05:16:58;15.20;;;13.60;;
13443;SDS011;6794;59.218;18.218;2022-08-19T05:19:24;16.63;;;13.23;;
13443;SDS011;6794;59.218;18.218;2022-08-19T05:22:09;14.63;;;12.70;;
13443;SDS011;6794;59.218;18.218;2022-08-19T05:24:53;15.13;;;13.50;;
13443;SDS011;6794;59.218;18.218;2022-08-19T05:27:20;15.10;;;13.60;;
13443;SDS011;6794;59.218;18.218;2022-08-19T05:29:46;14.87;;;12.60;;
13443;SDS011;6794;59.218;18.218;2022-08-19T05:32:12;14.10;;;12.70;;
13443;SDS011;6794;59.218;18.218;2022-08-19T05:34:38;13.73;;;12.17;;
13443;SDS011;6794;59.218;18.218;2022-08-19T05:37:04;13.87;;;12.47;;
13443;SDS011;6794;59.218;18.218;2022-08-19T05:39:33;13.83;;;12.27;;
13443;SDS011;6794;59.218;18.218;2022-08-19T05:42:00;15.37;;;12.73;;
13443;SDS011;6794;59.218;18.218;2022-08-19T05:44:29;14.63;;;12.70;;
13443;SDS011;6794;59.218;18.218;2022-08-19T05:46:56;15.10;;;12.50;;
13443;SDS011;6794;59.218;18.218;2022-08-19T05:49:23;13.60;;;12.20;;
13443;SDS011;6794;59.218;18.218;2022-08-19T05:51:50;14.13;;;11.90;;
13443;SDS011;6794;59.218;18.218;2022-08-19T05:54:17;13.33;;;12.03;;
13443;SDS011;6794;59.218;18.218;2022-08-19T05:56:43;13.53;;;12.13;;
13443;SDS011;6794;59.218;18.218;2022-08-19T05:59:12;13.10;;;11.27;;
13443;SDS011;6794;59.218;18.218;2022-08-19T06:01:39;11.97;;;10.77;;
13443;SDS011;6794;59.218;18.218;2022-08-19T06:04:05;12.47;;;11.17;;
13443;SDS011;6794;59.218;18.218;2022-08-19T06:06:32;12.47;;;11.07;;
13443;SDS011;6794;59.218;18.218;2022-08-19T06:08:59;12.63;;;11.03;;
13443;SDS011;6794;59.218;18.218;2022-08-19T06:14:05;11.07;;;10.00;;
13443;SDS011;6794;59.218;18.218;2022-08-19T06:16:33;14.17;;;10.93;;
13443;SDS011;6794;59.218;18.218;2022-08-19T06:19:00;11.57;;;10.37;;
13443;SDS011;6794;59.218;18.218;2022-08-19T06:21:27;11.83;;;10.10;;
13443;SDS011;6794;59.218;18.218;2022-08-19T06:23:53;11.17;;;10.07;;
13443;SDS011;6794;59.218;18.218;2022-08-19T06:26:20;13.00;;;10.00;;
13443;SDS011;6794;59.218;18.218;2022-08-19T06:28:47;12.30;;;9.37;;
13443;SDS011;6794;59.218;18.218;2022-08-19T06:31:14;11.90;;;9.77;;
13443;SDS011;6794;59.218;18.218;2022-08-19T06:33:41;12.17;;;9.33;;
13443;SDS011;6794;59.218;18.218;2022-08-19T06:36:07;10.17;;;7.70;;
13443;SDS011;6794;59.218;18.218;2022-08-19T06:38:33;12.83;;;7.97;;
13443;SDS011;6794;59.218;18.218;2022-08-19T06:41:01;10.77;;;7.77;;
13443;SDS011;6794;59.218;18.218;2022-08-19T06:43:27;11.27;;;6.97;;
13443;SDS011;6794;59.218;18.218;2022-08-19T06:45:53;6.93;;;6.13;;
13443;SDS011;6794;59.218;18.218;2022-08-19T06:48:19;11.07;;;6.83;;
13443;SDS011;6794;59.218;18.218;2022-08-19T06:50:45;6.57;;;5.97;;
13443;SDS011;6794;59.218;18.218;2022-08-19T06:53:12;7.47;;;6.67;;
13443;SDS011;6794;59.218;18.218;2022-08-19T06:55:38;8.83;;;6.00;;
13443;SDS011;6794;59.218;18.218;2022-08-19T06:58:05;7.47;;;6.00;;
13443;SDS011;6794;59.218;18.218;2022-08-19T07:00:31;8.67;;;6.13;;
13443;SDS011;6794;59.218;18.218;2022-08-19T07:02:57;11.30;;;5.90;;
13443;SDS011;6794;59.218;18.218;2022-08-19T07:05:25;7.57;;;6.47;;
13443;SDS011;6794;59.218;18.218;2022-08-19T07:07:51;7.00;;;6.07;;
13443;SDS011;6794;59.218;18.218;2022-08-19T07:10:17;6.87;;;6.00;;
13443;SDS011;6794;59.218;18.218;2022-08-19T07:12:44;8.50;;;6.00;;
13443;SDS011;6794;59.218;18.218;2022-08-19T07:15:10;8.23;;;6.37;;
13443;SDS011;6794;59.218;18.218;2022-08-19T07:17:37;7.60;;;6.17;;
13443;SDS011;6794;59.218;18.218;2022-08-19T07:20:04;9.17;;;5.80;;
13443;SDS011;6794;59.218;18.218;2022-08-19T07:22:31;10.57;;;6.43;;
13443;SDS011;6794;59.218;18.218;2022-08-19T07:24:58;8.40;;;5.77;;
13443;SDS011;6794;59.218;18.218;2022-08-19T07:27:24;11.87;;;5.87;;
13443;SDS011;6794;59.218;18.218;2022-08-19T07:29:54;11.73;;;6.00;;
13443;SDS011;6794;59.218;18.218;2022-08-19T07:32:20;6.63;;;5.47;;
13443;SDS011;6794;59.218;18.218;2022-08-19T07:34:46;9.70;;;6.30;;
13443;SDS011;6794;59.218;18.218;2022-08-19T07:37:12;8.60;;;6.00;;
13443;SDS011;6794;59.218;18.218;2022-08-19T07:39:38;7.43;;;5.80;;
13443;SDS011;6794;59.218;18.218;2022-08-19T07:42:06;8.40;;;5.37;;
13443;SDS011;6794;59.218;18.218;2022-08-19T07:44:34;8.30;;;5.77;;
13443;SDS011;6794;59.218;18.218;2022-08-19T07:47:00;7.83;;;5.90;;
13443;SDS011;6794;59.218;18.218;2022-08-19T07:49:27;12.80;;;8.57;;
13443;SDS011;6794;59.218;18.218;2022-08-19T07:51:57;8.77;;;6.10;;
13443;SDS011;6794;59.218;18.218;2022-08-19T07:54:26;10.97;;;6.03;;
13443;SDS011;6794;59.218;18.218;2022-08-19T07:56:53;7.30;;;5.77;;
13443;SDS011;6794;59.218;18.218;2022-08-19T07:59:19;7.27;;;6.10;;
13443;SDS011;6794;59.218;18.218;2022-08-19T08:01:45;9.10;;;6.60;;
13443;SDS011;6794;59.218;18.218;2022-08-19T08:04:11;8.30;;;6.27;;
13443;SDS011;6794;59.218;18.218;2022-08-19T08:06:56;10.83;;;6.07;;
13443;SDS011;6794;59.218;18.218;2022-08-19T08:09:42;9.90;;;6.20;;
13443;SDS011;6794;59.218;18.218;2022-08-19T08:12:10;8.83;;;5.93;;
13443;SDS011;6794;59.218;18.218;2022-08-19T08:14:42;9.47;;;5.83;;
13443;SDS011;6794;59.218;18.218;2022-08-19T08:17:10;8.33;;;6.47;;
13443;SDS011;6794;59.218;18.218;2022-08-19T08:19:37;8.43;;;6.10;;
13443;SDS011;6794;59.218;18.218;2022-08-19T08:28:13;8.70;;;6.00;;
13443;SDS011;6794;59.218;18.218;2022-08-19T08:30:39;8.90;;;5.83;;
13443;SDS011;6794;59.218;18.218;2022-08-19T08:33:07;9.70;;;5.57;;
13443;SDS011;6794;59.218;18.218;2022-08-19T08:35:33;9.10;;;5.90;;
13443;SDS011;6794;59.218;18.218;2022-08-19T08:37:59;8.70;;;5.57;;
13443;SDS011;6794;59.218;18.218;2022-08-19T08:40:30;8.57;;;5.63;;
13443;SDS011;6794;59.218;18.218;2022-08-19T08:51:15;6.43;;;5.70;;
13443;SDS011;6794;59.218;18.218;2022-08-19T08:53:42;8.50;;;5.37;;
13443;SDS011;6794;59.218;18.218;2022-08-19T08:56:10;7.80;;;5.23;;
13443;SDS011;6794;59.218;18.218;2022-08-19T09:01:22;7.73;;;5.73;;
13443;SDS011;6794;59.218;18.218;2022-08-19T09:03:48;6.73;;;5.37;;
13443;SDS011;6794;59.218;18.218;2022-08-19T09:06:24;6.23;;;4.97;;
13443;SDS011;6794;59.218;18.218;2022-08-19T09:09:05;8.43;;;5.50;;
13443;SDS011;6794;59.218;18.218;2022-08-19T09:14:46;6.77;;;5.17;;
13443;SDS011;6794;59.218;18.218;2022-08-19T09:20:19;8.03;;;5.43;;
13443;SDS011;6794;59.218;18.218;2022-08-19T09:22:45;5.73;;;4.33;;
13443;SDS011;6794;59.218;18.218;2022-08-19T09:25:12;7.80;;;4.70;;
13443;SDS011;6794;59.218;18.218;2022-08-19T09:27:40;8.07;;;5.10;;
13443;SDS011;6794;59.218;18.218;2022-08-19T09:30:07;9.20;;;5.67;;
13443;SDS011;6794;59.218;18.218;2022-08-19T09:32:33;8.43;;;4.90;;
13443;SDS011;6794;59.218;18.218;2022-08-19T09:34:59;7.87;;;5.07;;
13443;SDS011;6794;59.218;18.218;2022-08-19T09:37:26;5.33;;;4.80;;
13443;SDS011;6794;59.218;18.218;2022-08-19T09:39:53;8.87;;;4.67;;
13443;SDS011;6794;59.218;18.218;2022-08-19T09:42:19;7.80;;;5.30;;
13443;SDS011;6794;59.218;18.218;2022-08-19T09:44:45;5.23;;;4.73;;
13443;SDS011;6794;59.218;18.218;2022-08-19T09:47:12;7.60;;;5.20;;
13443;SDS011;6794;59.218;18.218;2022-08-19T09:49:39;8.30;;;5.83;;
13443;SDS011;6794;59.218;18.218;2022-08-19T09:52:06;6.50;;;4.80;;
13443;SDS011;6794;59.218;18.218;2022-08-19T09:54:32;7.17;;;5.37;;
13443;SDS011;6794;59.218;18.218;2022-08-19T09:56:58;9.73;;;5.43;;
13443;SDS011;6794;59.218;18.218;2022-08-19T09:59:28;7.00;;;5.07;;
13443;SDS011;6794;59.218;18.218;2022-08-19T10:01:54;7.63;;;5.00;;
13443;SDS011;6794;59.218;18.218;2022-08-19T10:04:20;6.80;;;5.33;;
13443;SDS011;6794;59.218;18.218;2022-08-19T10:06:47;6.17;;;4.97;;
13443;SDS011;6794;59.218;18.218;2022-08-19T10:09:14;6.83;;;4.90;;
13443;SDS011;6794;59.218;18.218;2022-08-19T10:11:42;6.57;;;5.07;;
13443;SDS011;6794;59.218;18.218;2022-08-19T10:14:08;8.40;;;5.03;;
13443;SDS011;6794;59.218;18.218;2022-08-19T10:16:35;6.43;;;4.80;;
13443;SDS011;6794;59.218;18.218;2022-08-19T10:19:02;7.27;;;4.63;;
13443;SDS011;6794;59.218;18.218;2022-08-19T10:21:30;7.87;;;5.40;;
13443;SDS011;6794;59.218;18.218;2022-08-19T10:23:58;7.07;;;5.20;;
13443;SDS011;6794;59.218;18.218;2022-08-19T10:26:28;6.43;;;5.10;;
13443;SDS011;6794;59.218;18.218;2022-08-19T10:28:54;7.93;;;5.20;;
13443;SDS011;6794;59.218;18.218;2022-08-19T10:31:23;10.97;;;5.33;;
13443;SDS011;6794;59.218;18.218;2022-08-19T10:33:50;6.10;;;4.70;;
13443;SDS011;6794;59.218;18.218;2022-08-19T10:36:23;5.93;;;4.60;;
13443;SDS011;6794;59.218;18.218;2022-08-19T10:38:51;10.07;;;4.73;;
13443;SDS011;6794;59.218;18.218;2022-08-19T10:41:18;6.73;;;4.60;;
13443;SDS011;6794;59.218;18.218;2022-08-19T10:43:47;6.17;;;4.90;;
13443;SDS011;6794;59.218;18.218;2022-08-19T10:46:14;6.53;;;4.70;;
13443;SDS011;6794;59.218;18.218;2022-08-19T10:48:41;5.80;;;5.20;;
13443;SDS011;6794;59.218;18.218;2022-08-19T10:51:08;5.50;;;5.00;;
13443;SDS011;6794;59.218;18.218;2022-08-19T10:53:53;8.23;;;4.83;;
13443;SDS011;6794;59.218;18.218;2022-08-19T10:56:19;5.90;;;4.80;;
13443;SDS011;6794;59.218;18.218;2022-08-19T10:59:04;7.17;;;4.63;;
13443;SDS011;6794;59.218;18.218;2022-08-19T11:01:30;4.70;;;4.30;;
13443;SDS011;6794;59.218;18.218;2022-08-19T11:03:58;6.47;;;4.70;;
13443;SDS011;6794;59.218;18.218;2022-08-19T11:06:25;7.20;;;4.70;;
13443;SDS011;6794;59.218;18.218;2022-08-19T11:08:51;6.53;;;4.90;;
13443;SDS011;6794;59.218;18.218;2022-08-19T11:11:17;7.03;;;4.93;;
13443;SDS011;6794;59.218;18.218;2022-08-19T11:13:43;6.10;;;4.67;;
13443;SDS011;6794;59.218;18.218;2022-08-19T11:16:11;9.90;;;4.93;;
13443;SDS011;6794;59.218;18.218;2022-08-19T11:18:39;5.83;;;4.43;;
13443;SDS011;6794;59.218;18.218;2022-08-19T11:21:11;4.47;;;4.03;;
13443;SDS011;6794;59.218;18.218;2022-08-19T11:23:37;6.27;;;4.67;;
13443;SDS011;6794;59.218;18.218;2022-08-19T11:26:03;8.50;;;5.20;;
13443;SDS011;6794;59.218;18.218;2022-08-19T11:28:29;4.40;;;4.10;;
13443;SDS011;6794;59.218;18.218;2022-08-19T11:30:55;8.60;;;5.50;;
13443;SDS011;6794;59.218;18.218;2022-08-19T11:33:21;8.33;;;4.67;;
13443;SDS011;6794;59.218;18.218;2022-08-19T11:35:48;4.77;;;4.27;;
13443;SDS011;6794;59.218;18.218;2022-08-19T11:38:14;6.57;;;4.80;;
13443;SDS011;6794;59.218;18.218;2022-08-19T11:40:40;8.70;;;5.07;;
13443;SDS011;6794;59.218;18.218;2022-08-19T11:43:07;5.77;;;5.10;;
13443;SDS011;6794;59.218;18.218;2022-08-19T11:45:34;11.13;;;5.97;;
13443;SDS011;6794;59.218;18.218;2022-08-19T11:48:00;9.43;;;4.80;;
13443;SDS011;6794;59.218;18.218;2022-08-19T11:50:26;12.10;;;5.07;;
13443;SDS011;6794;59.218;18.218;2022-08-19T11:52:53;6.70;;;5.73;;
13443;SDS011;6794;59.218;18.218;2022-08-19T11:55:20;8.07;;;5.00;;
13443;SDS011;6794;59.218;18.218;2022-08-19T11:57:46;5.63;;;4.40;;
13443;SDS011;6794;59.218;18.218;2022-08-19T12:00:12;9.73;;;4.90;;
13443;SDS011;6794;59.218;18.218;2022-08-19T12:02:39;6.07;;;4.63;;
13443;SDS011;6794;59.218;18.218;2022-08-19T12:05:05;7.13;;;4.03;;
13443;SDS011;6794;59.218;18.218;2022-08-19T12:07:32;7.03;;;5.50;;
13443;SDS011;6794;59.218;18.218;2022-08-19T12:09:58;10.77;;;5.43;;
13443;SDS011;6794;59.218;18.218;2022-08-19T12:12:25;7.87;;;4.67;;
13443;SDS011;6794;59.218;18.218;2022-08-19T12:14:51;10.27;;;4.90;;
13443;SDS011;6794;59.218;18.218;2022-08-19T12:17:22;6.53;;;4.70;;
13443;SDS011;6794;59.218;18.218;2022-08-19T12:19:48;5.80;;;4.70;;
13443;SDS011;6794;59.218;18.218;2022-08-19T12:22:14;6.50;;;5.10;;
13443;SDS011;6794;59.218;18.218;2022-08-19T12:24:40;8.90;;;5.33;;
13443;SDS011;6794;59.218;18.218;2022-08-19T12:27:06;6.57;;;5.37;;
13443;SDS011;6794;59.218;18.218;2022-08-19T12:29:32;12.03;;;5.40;;
13443;SDS011;6794;59.218;18.218;2022-08-19T12:31:58;6.30;;;4.40;;
13443;SDS011;6794;59.218;18.218;2022-08-19T12:34:27;6.50;;;5.30;;
13443;SDS011;6794;59.218;18.218;2022-08-19T12:36:55;9.90;;;4.77;;
13443;SDS011;6794;59.218;18.218;2022-08-19T12:39:21;9.87;;;5.57;;
13443;SDS011;6794;59.218;18.218;2022-08-19T12:41:47;7.67;;;4.80;;
13443;SDS011;6794;59.218;18.218;2022-08-19T12:44:14;7.47;;;4.70;;
13443;SDS011;6794;59.218;18.218;2022-08-19T12:46:40;5.83;;;5.20;;
13443;SDS011;6794;59.218;18.218;2022-08-19T12:49:06;8.00;;;4.80;;
13443;SDS011;6794;59.218;18.218;2022-08-19T12:51:32;6.70;;;5.27;;
13443;SDS011;6794;59.218;18.218;2022-08-19T12:53:58;7.10;;;5.23;;
13443;SDS011;6794;59.218;18.218;2022-08-19T12:56:24;8.13;;;5.60;;
13443;SDS011;6794;59.218;18.218;2022-08-19T12:58:50;8.07;;;4.83;;
13443;SDS011;6794;59.218;18.218;2022-08-19T13:01:17;8.17;;;5.50;;
13443;SDS011;6794;59.218;18.218;2022-08-19T13:03:44;8.50;;;5.50;;
13443;SDS011;6794;59.218;18.218;2022-08-19T13:06:10;7.47;;;5.67;;
13443;SDS011;6794;59.218;18.218;2022-08-19T13:08:37;7.80;;;5.70;;
13443;SDS011;6794;59.218;18.218;2022-08-19T13:11:07;9.67;;;5.77;;
13443;SDS011;6794;59.218;18.218;2022-08-19T13:13:33;6.60;;;5.30;;
13443;SDS011;6794;59.218;18.218;2022-08-19T13:16:00;6.20;;;4.83;;
13443;SDS011;6794;59.218;18.218;2022-08-19T13:18:29;7.33;;;5.63;;
13443;SDS011;6794;59.218;18.218;2022-08-19T13:20:56;6.10;;;5.50;;
13443;SDS011;6794;59.218;18.218;2022-08-19T13:23:22;7.33;;;5.23;;
13443;SDS011;6794;59.218;18.218;2022-08-19T13:26:01;5.77;;;5.10;;
13443;SDS011;6794;59.218;18.218;2022-08-19T13:28:28;8.47;;;6.10;;
13443;SDS011;6794;59.218;18.218;2022-08-19T13:31:15;10.47;;;5.27;;
13443;SDS011;6794;59.218;18.218;2022-08-19T13:34:00;9.20;;;5.90;;
13443;SDS011;6794;59.218;18.218;2022-08-19T13:36:26;7.97;;;5.70;;
13443;SDS011;6794;59.218;18.218;2022-08-19T13:38:52;8.63;;;6.57;;
13443;SDS011;6794;59.218;18.218;2022-08-19T13:41:18;10.83;;;5.83;;
13443;SDS011;6794;59.218;18.218;2022-08-19T13:43:45;7.67;;;5.97;;
13443;SDS011;6794;59.218;18.218;2022-08-19T13:46:11;7.30;;;5.73;;
13443;SDS011;6794;59.218;18.218;2022-08-19T13:48:40;7.33;;;5.50;;
13443;SDS011;6794;59.218;18.218;2022-08-19T13:51:07;7.60;;;5.90;;
13443;SDS011;6794;59.218;18.218;2022-08-19T13:53:37;6.60;;;5.67;;
13443;SDS011;6794;59.218;18.218;2022-08-19T13:56:06;8.63;;;6.63;;
13443;SDS011;6794;59.218;18.218;2022-08-19T13:58:33;11.13;;;5.83;;
13443;SDS011;6794;59.218;18.218;2022-08-19T14:00:59;7.07;;;6.10;;
13443;SDS011;6794;59.218;18.218;2022-08-19T14:03:25;10.63;;;5.83;;
13443;SDS011;6794;59.218;18.218;2022-08-19T14:05:52;8.53;;;5.63;;
13443;SDS011;6794;59.218;18.218;2022-08-19T14:08:18;8.43;;;5.60;;
13443;SDS011;6794;59.218;18.218;2022-08-19T14:10:44;8.30;;;5.70;;
13443;SDS011;6794;59.218;18.218;2022-08-19T14:13:13;7.90;;;5.93;;
13443;SDS011;6794;59.218;18.218;2022-08-19T14:15:39;6.57;;;5.53;;
13443;SDS011;6794;59.218;18.218;2022-08-19T14:18:05;7.23;;;5.70;;
13443;SDS011;6794;59.218;18.218;2022-08-19T14:20:33;7.53;;;5.60;;
13443;SDS011;6794;59.218;18.218;2022-08-19T14:23:00;8.13;;;5.87;;
13443;SDS011;6794;59.218;18.218;2022-08-19T14:25:26;15.00;;;6.53;;
13443;SDS011;6794;59.218;18.218;2022-08-19T14:27:53;7.03;;;5.27;;
13443;SDS011;6794;59.218;18.218;2022-08-19T14:30:23;10.30;;;5.70;;
13443;SDS011;6794;59.218;18.218;2022-08-19T14:32:51;8.77;;;5.80;;
13443;SDS011;6794;59.218;18.218;2022-08-19T14:35:17;7.20;;;6.00;;
13443;SDS011;6794;59.218;18.218;2022-08-19T14:37:44;5.90;;;5.30;;
13443;SDS011;6794;59.218;18.218;2022-08-19T14:40:12;8.47;;;6.23;;
13443;SDS011;6794;59.218;18.218;2022-08-19T14:42:39;8.27;;;5.80;;
13443;SDS011;6794;59.218;18.218;2022-08-19T14:45:06;7.83;;;5.70;;
13443;SDS011;6794;59.218;18.218;2022-08-19T14:47:32;8.90;;;6.07;;
13443;SDS011;6794;59.218;18.218;2022-08-19T14:49:58;9.00;;;6.07;;
13443;SDS011;6794;59.218;18.218;2022-08-19T14:52:24;9.47;;;6.07;;
13443;SDS011;6794;59.218;18.218;2022-08-19T14:54:50;6.53;;;5.63;;
13443;SDS011;6794;59.218;18.218;2022-08-19T14:57:17;10.03;;;6.13;;
13443;SDS011;6794;59.218;18.218;2022-08-19T14:59:43;9.30;;;6.20;;
13443;SDS011;6794;59.218;18.218;2022-08-19T15:02:09;6.80;;;6.10;;
13443;SDS011;6794;59.218;18.218;2022-08-19T15:04:35;7.73;;;6.30;;